createdAt,value
2022-12-23T00:00:07.151Z,4.89
2022-12-23T00:03:14.627Z,4.88
2022-12-23T00:06:20.425Z,4.83
2022-12-23T00:09:23.100Z,4.89
2022-12-23T00:12:44.093Z,4.75
2022-12-23T00:15:46.707Z,4.92
2022-12-23T00:18:50.819Z,4.98
2022-12-23T00:21:53.450Z,4.97
2022-12-23T00:24:56.080Z,5.05
2022-12-23T00:28:01.548Z,5.07
2022-12-23T00:31:06.950Z,5.13
2022-12-23T00:34:11.972Z,5.28
2022-12-23T00:37:14.642Z,5.27
2022-12-23T00:40:35.832Z,5.31
2022-12-23T00:43:38.507Z,5.25
2022-12-23T00:46:41.490Z,5.23
2022-12-23T00:49:45.665Z,5.30
2022-12-23T00:52:48.352Z,5.34
2022-12-23T00:55:51.360Z,5.35
2022-12-23T00:58:53.992Z,5.28
2022-12-23T01:02:15.782Z,5.29
2022-12-23T01:05:38.399Z,5.34
2022-12-23T01:08:41.537Z,5.30
2022-12-23T01:11:44.150Z,5.30
2022-12-23T01:14:46.853Z,5.36
2022-12-23T01:17:49.499Z,5.22
2022-12-23T01:20:53.754Z,5.19
2022-12-23T01:23:56.363Z,5.30
2022-12-23T01:26:59.167Z,5.38
2022-12-23T01:30:01.962Z,5.57
2022-12-23T01:33:06.023Z,5.54
2022-12-23T01:36:10.951Z,5.63
2022-12-23T01:39:13.673Z,5.59
2022-12-23T01:42:37.306Z,5.52
2022-12-23T01:45:39.964Z,5.51
2022-12-23T01:48:45.506Z,5.48
2022-12-23T01:51:49.693Z,5.41
2022-12-23T01:54:53.013Z,5.45
2022-12-23T01:58:00.682Z,5.49
2022-12-23T02:01:22.956Z,5.42
2022-12-23T02:04:26.172Z,5.30
2022-12-23T02:07:50.265Z,5.34
2022-12-23T02:11:15.860Z,5.30
2022-12-23T02:14:49.331Z,5.31
2022-12-23T02:18:06.304Z,5.36
2022-12-23T02:21:27.289Z,5.37
2022-12-23T02:25:05.793Z,5.48
2022-12-23T02:28:40.880Z,5.55
2022-12-23T02:31:55.244Z,5.65
2022-12-23T02:35:04.942Z,5.67
2022-12-23T02:38:12.576Z,5.62
2022-12-23T02:41:23.382Z,5.71
2022-12-23T02:44:33.209Z,5.73
2022-12-23T02:47:42.238Z,5.74
2022-12-23T02:50:48.172Z,5.69
2022-12-23T02:53:54.428Z,5.85
2022-12-23T02:57:00.725Z,5.85
2022-12-23T03:00:05.525Z,5.76
2022-12-23T03:03:12.101Z,5.68
2022-12-23T03:06:21.737Z,5.70
2022-12-23T03:09:31.283Z,5.87
2022-12-23T03:12:47.220Z,5.82
2022-12-23T03:15:59.421Z,5.91
2022-12-23T03:19:14.345Z,5.95
2022-12-23T03:22:25.838Z,6.00
2022-12-23T03:25:33.931Z,6.00
2022-12-23T03:28:44.152Z,5.90
2022-12-23T03:31:48.772Z,5.98
2022-12-23T03:34:56.925Z,5.82
2022-12-23T03:38:02.351Z,5.99
2022-12-23T03:41:09.929Z,6.06
2022-12-23T03:44:19.566Z,6.07
2022-12-23T03:47:28.042Z,6.10
2022-12-23T03:50:36.454Z,6.02
2022-12-23T03:53:44.830Z,6.03
2022-12-23T03:56:53.158Z,5.96
2022-12-23T03:59:56.337Z,6.06
2022-12-23T04:03:10.285Z,6.09
2022-12-23T04:06:17.593Z,6.02
2022-12-23T04:09:22.563Z,6.10
2022-12-23T04:12:31.106Z,6.12
2022-12-23T04:15:38.706Z,6.07
2022-12-23T04:18:41.434Z,6.27
2022-12-23T04:21:45.528Z,6.26
2022-12-23T04:24:48.141Z,6.20
2022-12-23T04:27:50.748Z,6.25
2022-12-23T04:30:53.557Z,6.17
2022-12-23T04:33:56.696Z,6.29
2022-12-23T04:37:00.858Z,6.31
2022-12-23T04:40:04.213Z,6.31
2022-12-23T04:43:06.938Z,6.37
2022-12-23T04:46:09.515Z,6.30
2022-12-23T04:49:12.150Z,6.25
2022-12-23T04:52:16.436Z,6.27
2022-12-23T04:55:19.084Z,6.29
2022-12-23T04:58:22.338Z,6.35
2022-12-23T05:01:24.967Z,6.43
2022-12-23T05:04:28.995Z,6.29
2022-12-23T05:07:33.044Z,6.28
2022-12-23T05:10:37.546Z,6.28
2022-12-23T05:13:40.242Z,6.28
2022-12-23T05:16:42.831Z,6.21
2022-12-23T05:19:45.750Z,6.27
2022-12-23T05:22:50.328Z,6.27
2022-12-23T05:25:54.216Z,6.26
2022-12-23T05:28:56.878Z,6.23
2022-12-23T05:31:59.605Z,6.08
2022-12-23T05:35:02.431Z,5.97
2022-12-23T05:38:06.639Z,5.97
2022-12-23T05:41:09.316Z,5.98
2022-12-23T05:44:12.007Z,6.01
2022-12-23T05:47:14.731Z,5.90
2022-12-23T05:50:17.721Z,5.89
2022-12-23T05:53:21.994Z,5.92
2022-12-23T05:56:24.689Z,5.96
2022-12-23T05:59:30.969Z,5.94
2022-12-23T06:02:34.516Z,5.74
2022-12-23T06:05:38.999Z,5.72
2022-12-23T06:08:43.140Z,5.75
2022-12-23T06:11:46.074Z,5.74
2022-12-23T06:14:48.801Z,5.66
2022-12-23T06:17:51.681Z,5.64
2022-12-23T06:20:54.568Z,5.59
2022-12-23T06:23:58.906Z,5.55
2022-12-23T06:27:01.682Z,5.53
2022-12-23T06:30:05.165Z,5.50
2022-12-23T06:33:08.120Z,5.46
2022-12-23T06:36:10.915Z,5.39
2022-12-23T06:39:15.040Z,5.42
2022-12-23T06:42:17.745Z,5.39
2022-12-23T06:45:20.452Z,5.42
2022-12-23T06:48:23.066Z,5.44
2022-12-23T06:51:25.758Z,5.31
2022-12-23T06:54:29.844Z,5.41
2022-12-23T06:57:32.613Z,5.40
2022-12-23T07:00:39.749Z,5.27
2022-12-23T07:03:42.523Z,5.30
2022-12-23T07:06:45.322Z,5.40
2022-12-23T07:09:49.458Z,5.37
2022-12-23T07:12:52.118Z,5.22
2022-12-23T07:15:55.142Z,5.25
2022-12-23T07:18:57.930Z,5.30
2022-12-23T07:22:03.942Z,5.42
2022-12-23T07:25:09.200Z,5.49
2022-12-23T07:28:11.949Z,5.40
2022-12-23T07:31:15.023Z,5.54
2022-12-23T07:34:18.875Z,5.47
2022-12-23T07:37:21.482Z,5.56
2022-12-23T07:40:27.330Z,5.67
2022-12-23T07:43:30.041Z,5.64
2022-12-23T07:46:32.964Z,5.63
2022-12-23T07:49:35.800Z,5.75
2022-12-23T07:52:38.953Z,5.80
2022-12-23T07:55:42.923Z,5.77
2022-12-23T07:58:48.508Z,5.76
2022-12-23T08:01:51.169Z,5.66
2022-12-23T08:04:53.936Z,5.65
2022-12-23T08:07:56.565Z,5.73
2022-12-23T08:11:03.823Z,5.66
2022-12-23T08:14:07.071Z,5.57
2022-12-23T08:17:09.922Z,5.47
2022-12-23T08:20:13.062Z,5.41
2022-12-23T08:23:21.382Z,5.40
2022-12-23T08:26:28.433Z,5.62
2022-12-23T08:29:36.020Z,5.57
2022-12-23T08:32:39.342Z,5.70
2022-12-23T08:35:42.076Z,5.70
2022-12-23T08:38:45.626Z,5.73
2022-12-23T08:41:49.727Z,5.72
2022-12-23T08:44:56.719Z,5.85
2022-12-23T08:47:59.426Z,5.85
2022-12-23T08:51:05.687Z,5.80
2022-12-23T08:54:08.478Z,5.92
2022-12-23T08:57:12.617Z,5.66
2022-12-23T09:00:17.299Z,5.71
2022-12-23T09:03:20.221Z,5.44
2022-12-23T09:06:29.697Z,5.53
2022-12-23T09:09:33.523Z,5.66
2022-12-23T09:12:37.639Z,5.69
2022-12-23T09:15:42.305Z,5.60
2022-12-23T09:18:45.177Z,5.81
2022-12-23T09:21:48.112Z,5.99
2022-12-23T09:24:51.199Z,6.06
2022-12-23T09:27:55.469Z,6.27
2022-12-23T09:30:58.311Z,6.29
2022-12-23T09:34:01.371Z,6.27
2022-12-23T09:37:04.602Z,6.28
2022-12-23T09:40:11.048Z,6.10
2022-12-23T09:43:25.063Z,5.99
2022-12-23T09:46:32.849Z,6.08
2022-12-23T09:49:44.947Z,5.97
2022-12-23T09:52:57.851Z,6.17
2022-12-23T09:56:06.637Z,6.45
2022-12-23T09:59:22.429Z,6.58
2022-12-23T10:02:37.584Z,6.80
2022-12-23T10:05:56.292Z,6.74
2022-12-23T10:09:01.565Z,6.88
2022-12-23T10:12:14.342Z,6.84
2022-12-23T10:15:26.093Z,6.94
2022-12-23T10:18:44.741Z,6.75
2022-12-23T10:21:50.650Z,6.64
2022-12-23T10:24:55.569Z,6.82
2022-12-23T10:27:58.393Z,7.01
2022-12-23T10:31:30.904Z,7.19
2022-12-23T10:34:40.563Z,7.15
2022-12-23T10:37:55.348Z,7.24
2022-12-23T10:41:09.469Z,7.31
2022-12-23T10:44:33.422Z,7.14
2022-12-23T10:47:48.304Z,7.24
2022-12-23T10:50:59.545Z,7.38
2022-12-23T10:54:06.825Z,7.35
2022-12-23T10:57:10.462Z,7.42
2022-12-23T11:00:21.817Z,7.41
2022-12-23T11:03:28.885Z,7.44
2022-12-23T11:06:37.479Z,7.47
2022-12-23T11:09:44.156Z,7.33
2022-12-23T11:12:49.999Z,7.30
2022-12-23T11:15:53.061Z,7.48
2022-12-23T11:19:00.736Z,7.63
2022-12-23T11:22:04.146Z,7.90
2022-12-23T11:25:27.145Z,7.83
2022-12-23T11:28:31.514Z,7.68
2022-12-23T11:31:36.523Z,7.62
2022-12-23T11:34:45.846Z,7.81
2022-12-23T11:37:48.585Z,7.81
2022-12-23T11:40:51.469Z,7.86
2022-12-23T11:44:00.100Z,7.84
2022-12-23T11:47:23.120Z,7.77
2022-12-23T11:50:31.624Z,7.96
2022-12-23T11:53:36.715Z,8.14
2022-12-23T11:56:41.024Z,8.39
2022-12-23T11:59:51.273Z,8.44
2022-12-23T12:02:57.112Z,8.22
2022-12-23T12:06:03.706Z,8.25
2022-12-23T12:09:06.928Z,8.23
2022-12-23T12:12:17.511Z,8.27
2022-12-23T12:15:29.189Z,7.99
2022-12-23T12:18:34.038Z,8.12
2022-12-23T12:21:39.166Z,8.27
2022-12-23T12:24:51.008Z,8.48
2022-12-23T12:27:58.103Z,8.47
2022-12-23T12:31:11.719Z,8.13
2022-12-23T12:34:25.642Z,8.39
2022-12-23T12:37:39.716Z,8.38
2022-12-23T12:40:51.091Z,8.26
2022-12-23T12:44:17.568Z,8.21
2022-12-23T12:47:52.686Z,8.09
2022-12-23T12:51:01.259Z,7.99
2022-12-23T12:54:15.911Z,8.15
2022-12-23T12:57:21.354Z,8.33
2022-12-23T13:00:25.148Z,8.26
2022-12-23T13:03:51.591Z,8.12
2022-12-23T13:07:04.903Z,8.12
2022-12-23T13:10:14.819Z,8.20
2022-12-23T13:13:32.403Z,8.13
2022-12-23T13:16:45.551Z,8.05
2022-12-23T13:19:56.887Z,8.26
2022-12-23T13:23:41.117Z,8.36
2022-12-23T13:26:37.802Z,8.36
2022-12-23T13:29:57.548Z,8.25
2022-12-23T13:33:14.958Z,8.13
2022-12-23T13:36:32.708Z,8.09
2022-12-23T13:39:49.400Z,8.32
2022-12-23T13:42:59.749Z,8.26
2022-12-23T13:46:08.352Z,8.15
2022-12-23T13:49:19.987Z,7.98
2022-12-23T13:52:47.621Z,8.03
2022-12-23T13:56:06.046Z,8.17
2022-12-23T13:59:11.941Z,8.00
2022-12-23T14:02:40.872Z,7.95
2022-12-23T14:05:45.536Z,7.88
2022-12-23T14:08:48.777Z,7.81
2022-12-23T14:11:52.856Z,7.66
2022-12-23T14:15:28.090Z,7.66
2022-12-23T14:18:45.111Z,7.67
2022-12-23T14:21:57.933Z,7.54
2022-12-23T14:25:40.776Z,7.55
2022-12-23T14:28:56.473Z,7.60
2022-12-23T14:32:01.092Z,7.47
2022-12-23T14:35:17.320Z,7.40
2022-12-23T14:38:31.177Z,7.30
2022-12-23T14:41:38.924Z,7.25
2022-12-23T14:44:50.259Z,7.35
2022-12-23T14:47:54.384Z,7.35
2022-12-23T14:51:02.731Z,7.22
2022-12-23T14:54:15.958Z,7.27
2022-12-23T14:57:25.271Z,7.24
2022-12-23T15:00:32.199Z,7.28
2022-12-23T15:03:43.629Z,7.32
2022-12-23T15:06:48.484Z,7.27
2022-12-23T15:10:00.275Z,7.27
2022-12-23T15:13:06.037Z,7.40
2022-12-23T15:16:16.879Z,7.33
2022-12-23T15:19:24.351Z,7.42
2022-12-23T15:22:32.628Z,7.48
2022-12-23T15:25:39.996Z,7.44
2022-12-23T15:28:42.913Z,7.44
2022-12-23T15:31:48.682Z,7.47
2022-12-23T15:34:58.914Z,7.44
2022-12-23T15:38:02.891Z,7.38
2022-12-23T15:41:15.119Z,7.41
2022-12-23T15:44:20.838Z,7.44
2022-12-23T15:47:25.795Z,7.50
2022-12-23T15:50:40.289Z,7.41
2022-12-23T15:53:46.832Z,7.37
2022-12-23T15:56:52.319Z,7.43
2022-12-23T15:59:56.109Z,7.32
2022-12-23T16:03:01.226Z,7.34
2022-12-23T16:06:17.810Z,7.38
2022-12-23T16:09:31.787Z,7.36
2022-12-23T16:12:34.939Z,7.46
2022-12-23T16:15:37.647Z,7.46
2022-12-23T16:18:47.165Z,7.54
2022-12-23T16:21:51.588Z,7.54
2022-12-23T16:25:01.590Z,7.51
2022-12-23T16:28:07.661Z,7.60
2022-12-23T16:31:11.346Z,7.61
2022-12-23T16:34:14.091Z,7.67
2022-12-23T16:37:18.254Z,7.70
2022-12-23T16:40:24.596Z,7.64
2022-12-23T16:43:27.634Z,7.60
2022-12-23T16:46:36.365Z,7.46
2022-12-23T16:49:39.141Z,7.42
2022-12-23T16:52:43.349Z,7.28
2022-12-23T16:55:53.879Z,7.34
2022-12-23T16:58:57.911Z,7.18
2022-12-23T17:02:03.742Z,7.14
2022-12-23T17:05:07.855Z,7.12
2022-12-23T17:08:12.084Z,7.07
2022-12-23T17:11:17.467Z,6.93
2022-12-23T17:14:22.350Z,6.89
2022-12-23T17:17:26.047Z,6.87
2022-12-23T17:20:28.969Z,6.97
2022-12-23T17:23:33.089Z,6.98
2022-12-23T17:26:35.832Z,7.01
2022-12-23T17:29:38.472Z,6.93
2022-12-23T17:32:41.586Z,6.95
2022-12-23T17:35:44.365Z,6.91
2022-12-23T17:38:48.457Z,6.94
2022-12-23T17:41:51.385Z,7.01
2022-12-23T17:44:54.085Z,6.97
2022-12-23T17:47:57.190Z,6.86
2022-12-23T17:51:00.096Z,6.93
2022-12-23T17:54:06.452Z,6.86
2022-12-23T17:57:17.799Z,6.82
2022-12-23T18:00:29.864Z,6.85
2022-12-23T18:03:36.957Z,6.85
2022-12-23T18:06:39.563Z,6.85
2022-12-23T18:09:44.014Z,6.79
2022-12-23T18:12:49.989Z,6.92
2022-12-23T18:15:52.678Z,6.82
2022-12-23T18:18:55.620Z,6.74
2022-12-23T18:21:58.820Z,6.62
2022-12-23T18:25:03.378Z,6.59
2022-12-23T18:28:06.324Z,6.52
2022-12-23T18:31:15.206Z,6.54
2022-12-23T18:34:22.279Z,6.56
2022-12-23T18:37:25.022Z,6.59
2022-12-23T18:40:33.158Z,6.49
2022-12-23T18:43:37.183Z,6.50
2022-12-23T18:46:39.808Z,6.63
2022-12-23T18:49:43.197Z,6.46
2022-12-23T18:52:46.675Z,6.45
2022-12-23T18:55:51.174Z,6.51
2022-12-23T18:58:53.821Z,6.38
2022-12-23T19:01:56.968Z,6.29
2022-12-23T19:04:59.881Z,6.40
2022-12-23T19:08:02.699Z,6.53
2022-12-23T19:11:11.463Z,6.52
2022-12-23T19:14:14.755Z,6.57
2022-12-23T19:17:17.568Z,6.50
2022-12-23T19:20:25.504Z,6.56
2022-12-23T19:23:28.787Z,6.80
2022-12-23T19:26:32.777Z,6.76
2022-12-23T19:29:35.567Z,6.77
2022-12-23T19:32:38.159Z,6.69
2022-12-23T19:35:42.048Z,6.69
2022-12-23T19:38:45.061Z,6.75
2022-12-23T19:41:49.264Z,6.65
2022-12-23T19:44:52.023Z,6.56
2022-12-23T19:47:54.690Z,6.50
2022-12-23T19:50:59.029Z,6.25
2022-12-23T19:54:01.797Z,6.28
2022-12-23T19:57:05.783Z,6.12
2022-12-23T20:00:09.991Z,5.97
2022-12-23T20:03:15.988Z,5.85
2022-12-23T20:06:20.946Z,5.71
2022-12-23T20:09:23.835Z,5.63
2022-12-23T20:12:28.062Z,5.54
2022-12-23T20:15:30.728Z,5.50
2022-12-23T20:18:34.209Z,5.41
2022-12-23T20:21:40.142Z,5.30
2022-12-23T20:24:44.216Z,5.29
2022-12-23T20:27:48.241Z,5.22
2022-12-23T20:30:58.933Z,5.24
2022-12-23T20:34:02.457Z,5.30
2022-12-23T20:37:05.152Z,5.34
2022-12-23T20:40:10.401Z,5.39
2022-12-23T20:43:15.461Z,5.40
2022-12-23T20:46:19.125Z,5.40
2022-12-23T20:49:21.858Z,5.42
2022-12-23T20:52:25.589Z,5.54
2022-12-23T20:55:28.202Z,5.64
2022-12-23T20:58:50.517Z,5.61
2022-12-23T21:01:53.324Z,5.63
2022-12-23T21:04:56.022Z,5.68
2022-12-23T21:07:58.704Z,5.69
2022-12-23T21:11:03.459Z,5.75
2022-12-23T21:14:08.072Z,5.89
2022-12-23T21:17:10.811Z,6.04
2022-12-23T21:20:13.552Z,6.08
2022-12-23T21:23:16.560Z,6.19
2022-12-23T21:26:21.639Z,6.29
2022-12-23T21:29:26.210Z,6.16
2022-12-23T21:32:28.894Z,6.14
2022-12-23T21:35:31.559Z,6.20
2022-12-23T21:38:36.038Z,6.32
2022-12-23T21:41:41.239Z,6.57
2022-12-23T21:44:45.295Z,6.61
2022-12-23T21:47:47.976Z,6.59
2022-12-23T21:50:54.967Z,6.43
2022-12-23T21:53:59.077Z,6.58
2022-12-23T21:57:01.747Z,6.54
2022-12-23T22:00:07.180Z,6.71
2022-12-23T22:03:09.828Z,6.77
2022-12-23T22:06:15.249Z,6.75
2022-12-23T22:09:19.686Z,6.75
2022-12-23T22:12:22.393Z,6.68
2022-12-23T22:15:26.351Z,6.61
2022-12-23T22:18:29.010Z,6.81
2022-12-23T22:21:33.963Z,6.73
2022-12-23T22:24:36.812Z,6.78
2022-12-23T22:27:39.519Z,6.65
2022-12-23T22:30:43.602Z,6.56
2022-12-23T22:33:46.976Z,6.70
2022-12-23T22:36:50.245Z,6.75
2022-12-23T22:39:53.104Z,6.63
2022-12-23T22:42:57.331Z,6.68
2022-12-23T22:46:02.452Z,6.75
2022-12-23T22:49:05.739Z,6.75
2022-12-23T22:52:08.461Z,6.80
2022-12-23T22:55:11.168Z,6.88
2022-12-23T22:58:13.876Z,6.92
2022-12-23T23:01:22.467Z,6.87
2022-12-23T23:04:25.388Z,6.90
2022-12-23T23:07:27.978Z,6.88
2022-12-23T23:10:33.435Z,6.83
2022-12-23T23:13:36.338Z,6.94
2022-12-23T23:16:40.731Z,7.00
2022-12-23T23:19:43.450Z,7.01
2022-12-23T23:22:46.110Z,7.03
2022-12-23T23:25:49.767Z,6.96
2022-12-23T23:28:52.492Z,7.03
2022-12-23T23:31:58.700Z,7.14
2022-12-23T23:35:08.581Z,7.14
2022-12-23T23:38:13.100Z,7.09
2022-12-23T23:41:20.651Z,7.09
2022-12-23T23:44:25.784Z,7.08
2022-12-23T23:47:34.444Z,7.06
2022-12-23T23:50:37.151Z,7.24
2022-12-23T23:53:40.468Z,7.30
2022-12-23T23:56:43.234Z,7.36
2022-12-23T23:59:45.880Z,7.22
